Scroll down
FLIGHT INFORMATION
Norwegian Air Shuttle

NAX3730

At Arrival Gate

EKCH
 LIRF
DATE: 2021-09-30
GATE: D3
GATE DEPARTURE: 05:05
TAKEOFF: 05:15
DATE: 2021-09-30
GATE: T7
LANDING: 07:25
GATE ARRIVAL: 07:34
FLIGHT DATA
Crew: 
Speed: 
855 kph
Altitude: 
37,014 ft
Stage Length: 
1,536.7 km
Block Time: 
2.4 hrs
Flight Time: 
2.2 hrs
Fuel Used: 
5,963 kg
Cleared Route: EKCH NEXEN GIMRU MICOS WRB RANAX EDEGA AMETU SOGMI BOMBI GIGET ABUKA KRH EPIXU NATOR TITIX TRA RIPUS GERSA SOSON DEGAD ODINA TINKU XIBIL LIRF
TRACK DATA
50,000 ft 1,000 kts
AIRCRAFT INFO AND CUMULATIVE STATS
Aircraft Type: 
B738BW
Registration: 
SELCAL: 
BHEL
MSN/LN: 
39025 / 4652
Operator: 
Total Flights: 
8
Total Block Time: 
24.9 hrs
Total Flight Time: 
23.1 hrs
Total Fuel Used: 
61,191 kg
DATALINK LOG | Newest first | Current as of: 2022-10-04 20:22:47
LABEL SEQUENCE CONTENT Dn/Up
5Z362430 SEP 21 07:35:39z / FLT DECK GOOD / ACF POS GOOD / GRND SERVICES GOOD / MAINT GOOD▼ Dn
QD352307:34 12▼ Dn
QC261507:25▼ Dn
2U1929LIRF 300650Z 04005KT CAVOK 19/17 Q1019 NOSIG▲ Up
2S2009LIRF▼ Dn
GA3940GATE T7▲ Up
GR3930LIRF 07:25 HI-VAL NO DIPL/VIP NO▼ Dn
2U2919LIRF 300550Z VRB01KT 6000 NSC 17/16 Q1018 NOSIG▲ Up
2S2921LIRF▼ Dn
UM202527CLEARED TO FL 370▲ Up
DM62516REQUEST FL 370 DUE TO A/C PERF▼ Dn
QB160805:15▼ Dn
QA055805:05 25.2▼ Dn
5Z484130 SEP 21 04:48:32z / FLT DECK GOOD / ACF POS GOOD / GRND SERVICES GOOD / MAINT GOOD▼ Dn
2U4402EKCH 300420Z 16022KT 6000 -RA FEW010 BKN034 12/10 Q1011 TEMPO BKN012▲ Up
2S4438EKCH▼ Dn
A34043CLEARED TO LIRF VIA NEXE1C NEXEN T503 GIMRU MICOS WRB UN850 NATOR N850 ODINA TINKU XIBIL XIBI3A. SQUAWK 1121.▲ Up
B34033EKCH LIRF NAX3730 LN-NGN ▼ Dn
Q03529[LINK ACK]▲ Up
Q03528[LINK TEST]▼ Dn


AIRCRAFT HISTORY
FLIGHT DATE FLIGHT NO. ORIGIN DESTINATION CLEARED ROUTE BLOCK TIME FLIGHT TIME FUEL USED PILOT
2021-09-30NAX3731LIRF EKCH LIRF SOVAN AMTEL NUKNI BIKTU LUMAV SUMIR BRENO KONIN EXITI EMBOX LEGDA GARGU ERNUD BKD LASLU NOBRI PABMI TAGOB ROSOK NIKDA MONAK EKCH2.5 hrs2.2 hrs13,372 lbAnton Vind
2021-09-30NAX3730EKCH LIRF EKCH NEXEN GIMRU MICOS WRB RANAX EDEGA AMETU SOGMI BOMBI GIGET ABUKA KRH EPIXU NATOR TITIX TRA RIPUS GERSA SOSON DEGAD ODINA TINKU XIBIL LIRF2.4 hrs2.2 hrs13,145 lbAnton Vind
2021-08-28NAX3281LDDU EKCH LDDU MOKUN TORTO PARAK AMRAX BILNA SOPAV REGLI EPOPA SOGPI DEVEG NUDRO ARMEX XIDNA DENKO VAVUN MASUN GOMEX ROBOV TILAV GOSOT ROE ROXUB TIDVU EKCH2.4 hrs2.2 hrs12,830 lbAnton Vind
2021-08-28NAX3280EKCH LDDU EKCH NEXEN GIMRU MICOS EDEGA OMOGI SUNEG TEDGO UTABA MOMUK BEMKI XEBIX ELMEM BILDU OTRES GIRIS NIVAS PEVAL PUL SPL SIPAL TIKSA NERRA LDDU2.5 hrs2.3 hrs13,935 lbAnton Vind
2021-07-31NAX3390LCLK EKCH LCLK PHA GENOS PEDER DASNI TOMBI DERYA AYT OSVEL RAVGO YASEN MAKOL ARGES KARIL KENIN LENOV BABEN KOLOB ROE ROXUB TIDVU EKCH4.3 hrs3.9 hrs23,974 lbAnton Vind
2021-07-31NAX3390EKCH LCLK EKCH SIMEG BIKRU BILRA XELOL INDIG LENOV KENIN KARIL BIVBU GASRU ADORU ATVEP ULMAR EKI YAYLA KUDAK ESKIN KULAR NESIL LAMSA EDISI TOMBI DASNI VADUS BONEK LCLK3.7 hrs3.5 hrs21,228 lbAnton Vind
2021-04-06NAX3353LGSA EKCH LGSA SOKRI IXIMA EKTOS VELOP DDM VARDI YNN DIMIS RETRA GAC BOSNA OBUTI INSAX LOKVU LEMBI HDO BAKDO KOSEB MONAK EKCH3.3 hrs3.2 hrs18,569 lbRobin Oeverby
2021-04-05NAX9318ENZV LGSA ENZV BIVKI LUTIR WRB ANANO MASEK OSBIT WUR DINKU ABISO SABAD LUPAL KFN TRL SOKRI LGSA3.8 hrs3.6 hrs17,850 lbRobin Oeverby